ポンタ・デルガダ の空港の天気 - METARとTAF

ポンタ・デルガダ空港 ( LPPD / PDL ) - ポルトガル ポンタ・デルガダ (サンミゲル島)
飛行場実況気象(Metar)
観測時間10/20 04:00 AZOST (10/20 04:00 UTC)
風向・風速北 3m/s
視程10km以上
天気現象
少しの雲 雲底高度 610m
気温16℃
湿度63%
気圧1025hPa
METARLPPD 200400Z 01005KT 9999 FEW020 16/09 Q1025
過去の天気等 Google飛行場航空写真 Wunderground天気予報

過去48時間のMETAR

飛行場予報(TAF)
発表時間: 10/19 23:00 AZOST (10/19 23:00 UTC)
予報対象時間: 20日0時 AZOST ~ 21日0時 AZOST
風向・風速北北東 4m/s
視程10km以上
少しの雲 雲底高度 610m
全天の8割程度の雲 雲底高度 1070m
20日0時 AZOST ~ 20日24時 AZOST に一時的に
全天の4割程度の雲 雲底高度 610m
TAF LPPD 192300Z 2000/2024 03008KT 9999 FEW020 BKN035
TEMPO 2000/2024 SCT020